Time;durP1;ratioP1;P1;durP2;ratioP2;P2;SDS_P1;SDS_P2;PMS_P1;PMS_P2;Temp;Humidity;BMP_temperature;BMP_pressure;BME280_temperature;BME280_humidity;BME280_pressure;Samples;Min_cycle;Max_cycle;Signal;HPM_P1;HPM_P2
2021/04/11 00:02:24;;;;;;;1.87;1.30;;;;;;;12.69;51.44;95587.25;5019545;28;20475;-87
2021/04/11 00:04:52;;;;;;;2.00;1.23;;;;;;;12.68;51.27;95583.84;5019562;28;20601;-86
2021/04/11 00:07:18;;;;;;;2.40;1.60;;;;;;;12.65;51.11;95587.72;5019365;28;20807;-87
2021/04/11 00:09:45;;;;;;;1.90;1.37;;;;;;;12.58;51.57;95580.44;5020456;28;20426;-87
2021/04/11 00:12:11;;;;;;;2.80;1.13;;;;;;;12.54;51.82;95585.56;5019143;28;20567;-87
2021/04/11 00:14:37;;;;;;;2.40;1.77;;;;;;;12.52;52.24;95582.00;5020105;28;20442;-88
2021/04/11 00:17:04;;;;;;;1.87;1.20;;;;;;;12.46;51.95;95574.19;5020291;28;20430;-89
2021/04/11 00:19:30;;;;;;;1.50;1.30;;;;;;;12.40;52.22;95579.19;5020062;28;20452;-88
2021/04/11 00:21:56;;;;;;;4.60;1.63;;;;;;;12.35;52.04;95572.06;5020258;28;20478;-89
2021/04/11 00:24:23;;;;;;;3.47;1.87;;;;;;;12.31;52.34;95588.72;5019753;28;20445;-87
2021/04/11 00:26:49;;;;;;;2.23;1.50;;;;;;;12.25;53.04;95584.88;5019588;28;20797;-88
2021/04/11 00:29:15;;;;;;;3.23;1.53;;;;;;;12.23;53.29;95582.03;5019871;28;20443;-88
2021/04/11 00:31:41;;;;;;;2.00;1.37;;;;;;;12.18;53.35;95574.94;5019132;28;20472;-87
2021/04/11 00:34:07;;;;;;;2.27;1.40;;;;;;;12.13;53.58;95578.59;5019065;28;20508;-86
2021/04/11 00:36:33;;;;;;;2.13;1.47;;;;;;;12.08;53.90;95579.63;5018670;28;20417;-88
2021/04/11 00:39:00;;;;;;;3.50;1.70;;;;;;;12.07;53.65;95572.78;5019931;28;20447;-88
2021/04/11 00:41:29;;;;;;;2.47;1.60;;;;;;;12.02;53.85;95576.47;5020137;28;20534;-88
2021/04/11 00:43:57;;;;;;;2.23;1.33;;;;;;;11.97;54.17;95577.47;5019649;28;20494;-89
2021/04/11 00:46:32;;;;;;;2.60;1.63;;;;;;;11.93;54.28;95574.50;5020031;28;20916;-88
2021/04/11 00:49:00;;;;;;;2.00;1.27;;;;;;;11.88;54.53;95567.34;5019593;28;20905;-87
2021/04/11 00:51:28;;;;;;;1.60;1.33;;;;;;;11.81;54.18;95571.63;5019732;28;20444;-88
2021/04/11 00:54:00;;;;;;;2.70;1.63;;;;;;;11.79;54.33;95569.50;5018797;28;20472;-88
2021/04/11 00:56:26;;;;;;;1.93;1.43;;;;;;;11.76;54.48;95570.63;5019292;28;20493;-88
2021/04/11 00:58:53;;;;;;;2.50;1.77;;;;;;;11.73;55.20;95566.34;5018951;28;20494;-88
2021/04/11 01:01:20;;;;;;;2.20;1.70;;;;;;;11.73;54.95;95563.66;5018907;28;20433;-88
2021/04/11 01:03:48;;;;;;;2.73;1.53;;;;;;;11.70;54.73;95555.97;5019092;28;20433;-89
2021/04/11 01:06:19;;;;;;;2.57;1.93;;;;;;;11.66;54.91;95555.63;5019340;28;20511;-87
2021/04/11 01:08:46;;;;;;;5.67;1.93;;;;;;;11.60;55.71;95545.09;5019296;28;20522;-87
2021/04/11 01:11:16;;;;;;;1.67;1.57;;;;;;;11.55;55.40;95535.28;5019346;28;20448;-87
2021/04/11 01:13:45;;;;;;;2.63;1.90;;;;;;;11.49;55.53;95539.56;5018591;28;20499;-87
2021/04/11 01:16:12;;;;;;;4.17;1.80;;;;;;;11.47;55.93;95536.69;5018166;28;20560;-86
2021/04/11 01:18:39;;;;;;;1.33;1.23;;;;;;;11.43;56.22;95523.63;5018149;28;20432;-87
2021/04/11 01:21:09;;;;;;;4.27;1.40;;;;;;;11.41;56.22;95526.16;5018139;28;20531;-87
2021/04/11 01:23:45;;;;;;;3.23;1.80;;;;;;;11.42;56.31;95524.88;5018457;28;20391;-87
2021/04/11 01:26:15;;;;;;;2.20;1.40;;;;;;;11.42;55.94;95526.88;5018145;28;20523;-86
2021/04/11 01:28:45;;;;;;;2.60;1.43;;;;;;;11.42;56.14;95521.47;5018735;28;20448;-87
2021/04/11 01:31:12;;;;;;;3.03;1.50;;;;;;;11.41;56.76;95525.44;5018190;28;20428;-86
2021/04/11 01:33:43;;;;;;;3.37;1.80;;;;;;;11.41;56.17;95520.75;5018351;28;20492;-86
2021/04/11 01:36:13;;;;;;;2.67;1.57;;;;;;;11.40;57.11;95524.75;5017418;28;20424;-86
2021/04/11 01:38:41;;;;;;;4.73;1.90;;;;;;;11.40;56.61;95521.34;5018665;28;20460;-87
2021/04/11 01:41:10;;;;;;;4.33;1.43;;;;;;;11.40;56.54;95513.22;5019093;28;20444;-87
2021/04/11 01:43:37;;;;;;;4.60;1.67;;;;;;;11.37;56.99;95520.47;5018546;28;20464;-89
2021/04/11 01:46:05;;;;;;;2.20;1.77;;;;;;;11.33;57.07;95517.47;5018439;28;20411;-88
2021/04/11 01:48:32;;;;;;;3.50;1.50;;;;;;;11.29;57.62;95509.06;5018610;28;20446;-88
2021/04/11 01:50:59;;;;;;;2.67;1.40;;;;;;;11.29;57.71;95512.50;5018781;28;20458;-89
2021/04/11 01:53:27;;;;;;;1.30;1.10;;;;;;;11.32;57.43;95505.25;5017951;28;20484;-88
2021/04/11 01:55:54;;;;;;;1.47;1.20;;;;;;;11.39;57.60;95507.13;5018422;28;20458;-87
2021/04/11 01:58:20;;;;;;;3.97;1.60;;;;;;;11.44;57.18;95503.41;5018384;28;20452;-87
2021/04/11 02:01:07;;;;;;;1.47;1.30;;;;;;;11.48;56.69;95505.69;5017615;28;20440;-86
2021/04/11 02:03:33;;;;;;;2.13;1.47;;;;;;;11.50;56.79;95508.53;5017062;28;20968;-87
2021/04/11 02:06:03;;;;;;;3.17;1.23;;;;;;;11.52;56.91;95504.00;5017324;28;20531;-87
2021/04/11 02:08:30;;;;;;;3.60;1.80;;;;;;;11.53;57.31;95500.00;5018133;28;20545;-87
2021/04/11 02:10:57;;;;;;;4.70;2.33;;;;;;;11.55;57.15;95504.88;5018055;28;20516;-87
2021/04/11 02:13:26;;;;;;;2.20;1.37;;;;;;;11.57;58.11;95503.00;5017802;28;20851;-87
2021/04/11 02:15:57;;;;;;;4.80;1.70;;;;;;;11.64;57.14;95512.97;5017039;28;20470;-86
2021/04/11 02:18:23;;;;;;;1.60;1.33;;;;;;;11.67;57.90;95508.44;5016871;28;20455;-86
2021/04/11 02:20:51;;;;;;;2.50;1.20;;;;;;;11.65;57.63;95500.19;5016834;28;20452;-86
2021/04/11 02:23:18;;;;;;;3.57;2.30;;;;;;;11.61;57.55;95503.31;5017623;28;20460;-88
2021/04/11 02:25:46;;;;;;;2.40;1.40;;;;;;;11.59;57.86;95502.47;5018252;28;20460;-89
2021/04/11 02:28:14;;;;;;;5.67;1.90;;;;;;;11.60;57.42;95495.75;5017855;28;20448;-88
2021/04/11 02:30:47;;;;;;;4.10;1.60;;;;;;;11.58;57.22;95498.31;5017973;28;21023;-88
2021/04/11 02:33:14;;;;;;;4.70;1.80;;;;;;;11.58;57.26;95499.03;5017341;28;20462;-86
2021/04/11 02:35:40;;;;;;;2.13;1.83;;;;;;;11.62;57.57;95499.31;5017211;28;20867;-87
2021/04/11 02:38:09;;;;;;;3.30;1.50;;;;;;;11.63;57.18;95497.31;5016912;28;20462;-88
2021/04/11 02:40:40;;;;;;;3.40;1.47;;;;;;;11.69;57.37;95500.44;5016487;28;20822;-86
2021/04/11 02:43:08;;;;;;;4.17;1.47;;;;;;;11.62;57.34;95502.00;5016667;28;20614;-86
2021/04/11 02:45:38;;;;;;;2.30;1.63;;;;;;;11.62;57.46;95498.63;5017232;28;20414;-87
2021/04/11 02:48:06;;;;;;;2.53;1.27;;;;;;;11.57;58.06;95499.59;5017569;28;20444;-88
2021/04/11 02:50:37;;;;;;;2.83;1.77;;;;;;;11.53;58.10;95489.22;5017497;28;20516;-88
2021/04/11 02:53:06;;;;;;;1.50;1.40;;;;;;;11.55;58.12;95486.66;5017122;28;20498;-89
2021/04/11 02:55:35;;;;;;;2.93;1.60;;;;;;;11.56;57.75;95488.06;5017796;28;20439;-87
2021/04/11 02:58:02;;;;;;;3.60;1.37;;;;;;;11.58;58.08;95479.41;5017185;28;20511;-87
2021/04/11 03:00:31;;;;;;;1.80;1.53;;;;;;;11.58;57.84;95480.13;5017300;28;20496;-86
2021/04/11 03:02:57;;;;;;;3.30;1.60;;;;;;;11.60;57.78;95479.53;5016812;28;20447;-86
2021/04/11 03:05:25;;;;;;;1.70;1.27;;;;;;;11.60;57.87;95474.84;5017512;28;20461;-86
2021/04/11 03:07:57;;;;;;;3.57;1.67;;;;;;;11.58;57.80;95485.53;5017359;28;20506;-86
2021/04/11 03:10:26;;;;;;;2.50;1.77;;;;;;;11.54;58.47;95479.13;5017551;28;20512;-87
2021/04/11 03:12:55;;;;;;;2.37;1.77;;;;;;;11.51;58.57;95469.44;5016674;28;20545;-86
2021/04/11 03:15:23;;;;;;;2.53;1.23;;;;;;;11.51;58.18;95475.56;5016057;28;20455;-86
2021/04/11 03:17:52;;;;;;;2.97;1.57;;;;;;;11.51;58.48;95475.56;5016281;28;20498;-86
2021/04/11 03:20:24;;;;;;;3.70;1.83;;;;;;;11.49;58.28;95472.72;5017441;28;20456;-86
2021/04/11 03:22:51;;;;;;;3.33;1.60;;;;;;;11.53;58.66;95472.28;5017403;28;20438;-86
2021/04/11 03:25:19;;;;;;;2.00;1.80;;;;;;;11.53;58.34;95462.19;5016982;28;20984;-86
2021/04/11 03:27:51;;;;;;;2.60;1.77;;;;;;;11.50;58.45;95468.00;5016687;28;20452;-87
2021/04/11 03:30:22;;;;;;;2.17;1.43;;;;;;;11.51;58.60;95469.44;5017528;28;20444;-86
2021/04/11 03:32:52;;;;;;;3.60;1.90;;;;;;;11.53;58.61;95470.28;5017920;28;20480;-87
2021/04/11 03:35:23;;;;;;;4.23;2.07;;;;;;;11.56;57.90;95465.75;5017641;28;20425;-87
2021/04/11 03:37:51;;;;;;;3.10;1.30;;;;;;;11.57;57.67;95462.47;5017295;28;20467;-87
2021/04/11 03:40:24;;;;;;;3.13;1.63;;;;;;;11.58;57.37;95463.19;5016450;28;20531;-87
2021/04/11 03:42:52;;;;;;;3.37;1.67;;;;;;;11.50;57.81;95471.44;5018560;28;20473;-87
2021/04/11 03:45:19;;;;;;;1.47;1.17;;;;;;;11.50;57.97;95468.72;5020710;28;20443;-87
2021/04/11 03:47:50;;;;;;;2.43;1.40;;;;;;;11.50;58.04;95471.44;5020409;28;20557;-87
2021/04/11 03:50:21;;;;;;;3.80;1.30;;;;;;;11.49;58.02;95472.00;5020766;28;20408;-87
2021/04/11 03:52:55;;;;;;;1.73;1.53;;;;;;;11.47;58.10;95464.47;5020074;28;20483;-87
2021/04/11 03:55:25;;;;;;;4.10;1.90;;;;;;;11.48;58.15;95462.47;5020501;28;20859;-87
2021/04/11 03:57:55;;;;;;;3.70;1.83;;;;;;;11.38;58.64;95461.75;5021379;28;20470;-87
2021/04/11 04:00:25;;;;;;;2.63;1.73;;;;;;;11.35;58.64;95466.31;5033118;28;20459;-86
2021/04/11 04:02:53;;;;;;;2.17;1.23;;;;;;;11.34;59.18;95469.59;5032563;28;20543;-86
2021/04/11 04:05:24;;;;;;;1.90;1.50;;;;;;;11.35;59.05;95474.41;5032304;28;20463;-86
2021/04/11 04:07:53;;;;;;;3.73;2.00;;;;;;;11.37;59.03;95469.13;5023020;28;20456;-88
2021/04/11 04:10:21;;;;;;;2.50;1.60;;;;;;;11.43;58.75;95466.19;5020371;28;20531;-88
2021/04/11 04:13:24;;;;;;;2.40;1.80;;;;;;;11.49;58.71;95469.31;5020512;28;20498;-88
2021/04/11 04:16:08;;;;;;;1.57;1.23;;;;;;;11.45;58.67;95467.03;5022757;28;20463;-88
2021/04/11 04:19:01;;;;;;;4.60;2.03;;;;;;;11.48;58.26;95468.59;5040094;28;20448;-85
2021/04/11 04:21:49;;;;;;;1.70;1.50;;;;;;;11.45;58.63;95471.72;5032438;28;20476;-88
2021/04/11 04:24:31;;;;;;;4.20;1.73;;;;;;;11.40;58.79;95470.72;5019151;28;20957;-87
2021/04/11 04:27:06;;;;;;;1.37;1.27;;;;;;;11.39;58.76;95463.19;5021988;28;20519;-87
2021/04/11 04:29:39;;;;;;;8.27;2.03;;;;;;;11.40;59.05;95480.81;5021986;28;20428;-87
2021/04/11 04:32:24;;;;;;;4.43;1.60;;;;;;;11.36;59.32;95475.84;5021877;28;20456;-87
2021/04/11 04:35:05;;;;;;;1.80;1.70;;;;;;;11.35;60.02;95484.50;5030596;28;20435;-89
2021/04/11 04:37:44;;;;;;;3.20;1.97;;;;;;;11.29;60.11;95480.09;5039909;28;20419;-89
2021/04/11 04:40:18;;;;;;;1.70;1.60;;;;;;;11.22;60.43;95477.50;5039957;28;20460;-88
2021/04/11 04:42:50;;;;;;;3.47;1.63;;;;;;;11.24;61.18;95472.25;5027624;28;20547;-87
2021/04/11 04:45:28;;;;;;;4.97;1.63;;;;;;;11.23;60.94;95476.22;5020406;28;20906;-86
2021/04/11 04:48:01;;;;;;;4.77;2.13;;;;;;;11.22;61.08;95472.09;5021244;28;20455;-86
2021/04/11 04:50:31;;;;;;;2.07;1.70;;;;;;;11.26;60.83;95477.81;5027074;28;20475;-87
2021/04/11 04:53:07;;;;;;;3.93;2.00;;;;;;;11.27;61.10;95479.22;5025583;28;20547;-86
2021/04/11 04:55:37;;;;;;;4.97;1.93;;;;;;;11.31;60.08;95482.22;5024392;28;20436;-87
2021/04/11 04:58:10;;;;;;;2.80;1.80;;;;;;;11.25;61.15;95477.09;5020228;28;20536;-87
2021/04/11 05:00:40;;;;;;;4.33;2.40;;;;;;;11.21;60.95;95478.78;5020141;28;20786;-87
2021/04/11 05:03:11;;;;;;;3.07;2.10;;;;;;;11.21;60.76;95474.09;5019914;28;20514;-87
2021/04/11 05:05:42;;;;;;;5.23;1.70;;;;;;;11.18;61.47;95474.53;5019636;28;20456;-88
2021/04/11 05:08:13;;;;;;;4.53;2.43;;;;;;;11.16;61.66;95485.88;5020022;28;20432;-87
2021/04/11 05:10:44;;;;;;;3.87;2.27;;;;;;;11.14;61.66;95474.94;5019911;28;20806;-86
2021/04/11 05:13:17;;;;;;;2.80;2.17;;;;;;;11.16;62.25;95479.75;5019953;28;20538;-87
2021/04/11 05:15:47;;;;;;;3.93;1.93;;;;;;;11.21;61.29;95489.59;5019412;28;20523;-86
2021/04/11 05:18:17;;;;;;;6.93;2.10;;;;;;;11.23;61.47;95478.94;5019373;28;20428;-86
2021/04/11 05:20:49;;;;;;;6.13;2.60;;;;;;;11.21;62.26;95482.19;5019814;28;20973;-87
2021/04/11 05:23:22;;;;;;;5.43;3.10;;;;;;;11.22;61.87;95477.50;5019741;28;20609;-86
2021/04/11 05:25:53;;;;;;;2.70;2.40;;;;;;;11.32;61.83;95480.94;5020187;28;20439;-87
2021/04/11 05:28:23;;;;;;;4.43;2.30;;;;;;;11.38;61.49;95477.97;5019535;28;20446;-87
2021/04/11 05:30:58;;;;;;;4.30;2.53;;;;;;;11.38;62.23;95484.06;5019628;28;20537;-87
2021/04/11 05:33:25;;;;;;;9.63;2.33;;;;;;;11.35;61.81;95489.91;5021173;28;20487;-89
2021/04/11 05:36:00;;;;;;;2.40;2.20;;;;;;;11.37;62.23;95490.75;5020588;28;20449;-88
2021/04/11 05:38:35;;;;;;;5.90;2.83;;;;;;;11.42;61.60;95492.47;5019583;28;20464;-87
2021/04/11 05:41:07;;;;;;;10.23;2.37;;;;;;;11.48;62.01;95492.91;5019253;28;20479;-86
2021/04/11 05:43:40;;;;;;;5.40;2.70;;;;;;;11.50;61.67;95493.03;5019045;28;20435;-86
2021/04/11 05:46:13;;;;;;;3.23;1.67;;;;;;;11.58;61.64;95493.63;5019351;28;20395;-86
2021/04/11 05:48:47;;;;;;;7.90;2.30;;;;;;;11.55;61.67;95497.47;5018225;28;20446;-86
2021/04/11 05:51:18;;;;;;;4.00;1.73;;;;;;;11.59;61.13;95497.75;5019062;28;20879;-87
2021/04/11 05:53:48;;;;;;;4.30;2.17;;;;;;;11.68;60.75;95496.34;5019686;28;20567;-87
2021/04/11 05:56:20;;;;;;;3.23;2.23;;;;;;;11.78;60.85;95488.97;5019270;28;20500;-87
2021/04/11 05:58:49;;;;;;;3.70;2.37;;;;;;;11.86;61.05;95486.13;5018616;28;20460;-87
2021/04/11 06:01:19;;;;;;;2.07;1.87;;;;;;;11.89;60.57;95487.69;5018542;28;20490;-87
2021/04/11 06:03:50;;;;;;;4.50;2.20;;;;;;;11.91;60.89;95496.66;5019025;28;20465;-86
2021/04/11 06:06:22;;;;;;;3.70;2.20;;;;;;;11.96;60.96;95492.25;5018286;28;20495;-87
2021/04/11 06:08:56;;;;;;;3.60;2.20;;;;;;;12.00;60.25;95492.50;5019011;28;20516;-87
2021/04/11 06:11:30;;;;;;;3.03;2.13;;;;;;;12.10;59.97;95499.34;5020473;28;20767;-88
2021/04/11 06:14:01;;;;;;;3.40;2.20;;;;;;;12.17;59.63;95492.34;5019743;28;20921;-88
2021/04/11 06:16:30;;;;;;;3.33;2.40;;;;;;;12.25;59.49;95492.91;5020272;28;20462;-88
2021/04/11 06:18:58;;;;;;;4.40;2.13;;;;;;;12.33;59.20;95488.78;5019110;28;20414;-88
2021/04/11 06:21:35;;;;;;;2.63;1.80;;;;;;;12.38;59.08;95489.75;5018881;28;20447;-89
2021/04/11 06:24:07;;;;;;;3.80;2.13;;;;;;;12.48;58.98;95487.75;5019246;28;20897;-88
2021/04/11 06:26:40;;;;;;;9.37;3.40;;;;;;;12.58;58.76;95488.44;5019044;28;20963;-88
2021/04/11 06:29:14;;;;;;;3.00;2.00;;;;;;;12.68;57.96;95483.00;5019670;28;20504;-88
2021/04/11 06:31:47;;;;;;;4.17;1.90;;;;;;;12.75;57.54;95482.09;5019302;28;20602;-88
2021/04/11 06:34:18;;;;;;;3.20;1.40;;;;;;;12.84;57.35;95473.94;5019377;28;20479;-87
2021/04/11 06:36:46;;;;;;;2.10;1.87;;;;;;;12.90;56.58;95485.16;5018990;28;20953;-88
2021/04/11 06:39:20;;;;;;;3.70;1.93;;;;;;;13.04;56.69;95490.09;5019094;28;20447;-86
2021/04/11 06:42:07;;;;;;;3.47;2.00;;;;;;;13.25;56.13;95487.47;5019303;28;20464;-88
2021/04/11 06:45:02;;;;;;;3.57;1.87;;;;;;;13.64;55.34;95480.50;5021350;28;20866;-87
2021/04/11 06:47:59;;;;;;;3.20;1.70;;;;;;;14.48;53.13;95489.78;5018123;28;20434;-87
2021/04/11 06:50:36;;;;;;;3.40;1.80;;;;;;;15.19;50.60;95485.81;5018442;28;20515;-86
2021/04/11 06:53:34;;;;;;;2.00;1.80;;;;;;;15.25;50.04;95484.16;5018377;28;20498;-87
2021/04/11 06:56:40;;;;;;;2.57;1.43;;;;;;;15.74;48.84;95490.34;4986635;28;20486;-86
2021/04/11 06:59:19;;;;;;;6.70;2.40;;;;;;;16.21;48.25;95495.59;5010877;28;20535;-87
2021/04/11 07:02:04;;;;;;;9.77;2.40;;;;;;;16.68;47.35;95485.16;5023533;28;20498;-86
2021/04/11 07:05:06;;;;;;;3.67;2.70;;;;;;;16.94;47.04;95489.25;5021173;28;20945;-87
2021/04/11 07:08:22;;;;;;;4.23;2.40;;;;;;;17.29;46.24;95491.69;5019984;28;20507;-87
2021/04/11 07:11:19;;;;;;;5.50;1.90;;;;;;;17.90;45.03;95487.91;5020420;28;20480;-88
2021/04/11 07:14:22;;;;;;;3.27;1.67;;;;;;;18.60;42.96;95497.97;5019158;28;20504;-88
2021/04/11 07:17:18;;;;;;;2.10;1.30;;;;;;;19.10;41.22;95502.94;5019537;28;20440;-88
2021/04/11 07:20:04;;;;;;;4.07;2.00;;;;;;;18.72;42.21;95509.44;5023279;28;20432;-89
2021/04/11 07:22:54;;;;;;;1.83;1.33;;;;;;;18.40;42.07;95502.47;5023969;28;20551;-88
2021/04/11 07:25:46;;;;;;;3.53;1.73;;;;;;;18.35;42.26;95509.81;5024068;28;20579;-87
2021/04/11 07:28:28;;;;;;;13.70;1.50;;;;;;;18.30;42.61;95508.19;5011266;28;20925;-86
2021/04/11 07:31:06;;;;;;;3.63;1.43;;;;;;;18.89;41.87;95506.09;5022185;28;20512;-87
2021/04/11 07:34:06;;;;;;;3.23;1.50;;;;;;;19.17;40.96;95514.84;5021655;28;20886;-87
2021/04/11 07:37:06;;;;;;;4.50;1.83;;;;;;;19.15;40.08;95512.00;5022915;28;20440;-87
2021/04/11 07:39:47;;;;;;;2.40;1.87;;;;;;;18.81;40.79;95508.47;5021776;28;20488;-87
2021/04/11 07:42:50;;;;;;;3.17;1.97;;;;;;;18.51;41.35;95509.88;5023104;28;20474;-88
2021/04/11 07:45:28;;;;;;;3.10;2.07;;;;;;;18.05;42.43;95503.63;5023355;28;20494;-89
2021/04/11 07:48:12;;;;;;;6.33;1.80;;;;;;;17.96;42.86;95506.56;5023195;28;20432;-89
2021/04/11 07:50:59;;;;;;;3.03;1.70;;;;;;;17.83;43.30;95499.13;5023348;28;20463;-87
2021/04/11 07:53:58;;;;;;;2.73;2.10;;;;;;;18.27;42.62;95514.16;5022796;28;20547;-87
2021/04/11 07:56:35;;;;;;;4.10;1.87;;;;;;;18.29;42.40;95511.53;5022425;28;20435;-86
2021/04/11 07:59:31;;;;;;;5.83;2.60;;;;;;;18.31;42.95;95517.09;5023480;28;20909;-89
2021/04/11 08:02:39;;;;;;;2.13;1.80;;;;;;;18.95;41.76;95520.03;5020781;28;20554;-87
2021/04/11 08:05:48;;;;;;;2.10;1.53;;;;;;;19.58;40.78;95520.00;5023107;28;20479;-87
2021/04/11 08:08:24;;;;;;;4.30;1.60;;;;;;;19.78;39.73;95520.84;5022565;28;20847;-87
2021/04/11 08:11:25;;;;;;;2.73;2.37;;;;;;;20.40;39.10;95516.44;5022368;28;20569;-87
2021/04/11 08:13:58;;;;;;;4.87;1.97;;;;;;;20.67;38.30;95508.59;5022597;28;20584;-86
2021/04/11 08:16:47;;;;;;;4.83;2.10;;;;;;;20.75;38.47;95517.13;5022114;28;20459;-86
2021/04/11 08:20:04;;;;;;;5.40;1.90;;;;;;;21.11;37.48;95519.81;5022606;28;20443;-89
2021/04/11 08:23:00;;;;;;;5.40;1.80;;;;;;;20.43;39.31;95515.88;5022956;28;21079;-89
2021/04/11 08:25:34;;;;;;;5.10;2.60;;;;;;;20.16;39.71;95505.22;5022473;28;20479;-89
2021/04/11 08:28:44;;;;;;;4.33;1.50;;;;;;;19.94;40.11;95515.31;5022104;28;20451;-89
2021/04/11 08:31:33;;;;;;;3.47;2.40;;;;;;;19.77;40.29;95517.38;5022583;28;20600;-88
2021/04/11 08:34:41;;;;;;;3.37;1.70;;;;;;;19.59;41.16;95508.44;5020775;28;20494;-87
2021/04/11 08:37:44;;;;;;;5.17;2.10;;;;;;;19.42;41.22;95508.38;5024745;28;20443;-86
2021/04/11 08:40:21;;;;;;;2.53;1.47;;;;;;;19.69;41.24;95514.31;5024538;28;20452;-87
2021/04/11 08:43:17;;;;;;;1.37;1.20;;;;;;;19.77;41.23;95509.16;5023839;28;20452;-87
2021/04/11 08:46:13;;;;;;;3.90;2.00;;;;;;;19.92;41.22;95507.00;5023276;28;20431;-86
2021/04/11 08:48:46;;;;;;;4.20;2.30;;;;;;;19.72;41.37;95506.91;5019030;28;20543;-88
2021/04/11 08:51:22;;;;;;;2.97;1.23;;;;;;;19.63;41.36;95505.88;5021025;28;20466;-87
2021/04/11 08:54:11;;;;;;;5.60;1.90;;;;;;;19.47;42.20;95504.50;5021134;28;20478;-86
2021/04/11 08:56:41;;;;;;;1.33;1.20;;;;;;;19.24;41.42;95509.00;5023447;28;20884;-87
2021/04/11 08:59:15;;;;;;;3.40;1.57;;;;;;;19.05;42.10;95504.06;5024098;28;20527;-87
2021/04/11 09:02:05;;;;;;;2.20;1.57;;;;;;;19.09;41.90;95506.28;5023514;28;21062;-86
2021/04/11 09:04:38;;;;;;;2.07;1.23;;;;;;;19.18;41.53;95508.72;5019487;28;20445;-86
2021/04/11 09:07:17;;;;;;;4.20;1.30;;;;;;;19.02;41.52;95505.28;5019144;28;20456;-87
2021/04/11 09:09:58;;;;;;;1.70;1.37;;;;;;;19.12;41.65;95513.25;5018906;28;20507;-87
2021/04/11 09:12:35;;;;;;;3.10;2.40;;;;;;;19.00;42.13;95507.97;5020744;28;20488;-89
2021/04/11 09:15:12;;;;;;;1.93;1.70;;;;;;;18.78;42.12;95504.25;5021294;28;20507;-89
2021/04/11 09:18:03;;;;;;;3.77;1.50;;;;;;;18.70;42.32;95506.63;5021010;28;20515;-88
2021/04/11 09:20:38;;;;;;;4.93;1.43;;;;;;;18.56;42.15;95508.72;5022570;28;20437;-87
2021/04/11 09:23:22;;;;;;;2.10;1.00;;;;;;;18.37;42.89;95509.16;5019822;28;20464;-89
2021/04/11 09:26:02;;;;;;;3.13;1.33;;;;;;;18.43;42.88;95506.72;5019671;28;20455;-88
2021/04/11 09:28:54;;;;;;;4.10;1.40;;;;;;;18.40;42.81;95507.94;5020518;28;20539;-87
2021/04/11 09:31:32;;;;;;;2.30;1.50;;;;;;;18.37;42.36;95509.88;5016157;28;20903;-88
2021/04/11 09:34:20;;;;;;;3.60;1.73;;;;;;;18.38;42.64;95510.59;5020323;28;21021;-87
2021/04/11 09:36:58;;;;;;;5.03;1.40;;;;;;;18.41;42.53;95512.09;5020444;28;20503;-89
2021/04/11 09:39:36;;;;;;;2.97;1.40;;;;;;;18.41;42.64;95503.91;5019923;28;20429;-88
2021/04/11 09:42:21;;;;;;;2.67;1.60;;;;;;;18.49;42.72;95507.72;5021269;28;20561;-88
2021/04/11 09:45:07;;;;;;;2.40;1.03;;;;;;;18.57;42.95;95507.41;5020732;28;20447;-88
2021/04/11 09:47:49;;;;;;;2.70;1.73;;;;;;;18.48;42.78;95508.34;5036071;28;20662;-85
2021/04/11 09:50:40;;;;;;;3.73;1.80;;;;;;;18.73;42.38;95503.34;5038664;28;20452;-87
2021/04/11 09:53:38;;;;;;;2.37;1.70;;;;;;;18.92;41.62;95504.84;5025156;28;20487;-88
2021/04/11 09:56:21;;;;;;;3.07;1.97;;;;;;;18.87;42.27;95505.28;5019865;28;20495;-87
2021/04/11 09:59:14;;;;;;;1.77;1.03;;;;;;;19.03;41.59;95497.81;5019353;28;20436;-87
2021/04/11 10:01:48;;;;;;;3.70;1.70;;;;;;;19.15;41.56;95496.28;5019065;28;20912;-88
2021/04/11 10:04:33;;;;;;;8.07;1.80;;;;;;;19.18;41.54;95497.09;5022692;28;20463;-88
2021/04/11 10:07:16;;;;;;;4.30;1.60;;;;;;;19.26;41.71;95494.72;5023092;28;20432;-86
2021/04/11 10:09:52;;;;;;;3.33;1.60;;;;;;;19.46;41.53;95494.84;5018878;28;20417;-86
2021/04/11 10:12:53;;;;;;;3.47;1.63;;;;;;;19.70;40.85;95493.13;5019629;28;20528;-87
2021/04/11 10:15:24;;;;;;;4.80;1.77;;;;;;;19.50;40.16;95492.28;5017773;28;20999;-86
2021/04/11 10:18:49;;;;;;;6.40;1.47;;;;;;;19.71;40.09;95500.00;5018516;28;20436;-86
2021/04/11 10:21:24;;;;;;;4.33;1.50;;;;;;;19.98;39.58;95499.75;5018618;28;20474;-86
2021/04/11 10:24:12;;;;;;;8.60;3.70;;;;;;;20.19;39.01;95487.53;5019918;28;20460;-86
2021/04/11 10:26:44;;;;;;;8.07;2.73;;;;;;;20.00;39.17;95488.16;5019867;28;20579;-87
2021/04/11 10:29:16;;;;;;;2.13;1.40;;;;;;;20.28;39.28;95487.25;5019718;28;20515;-85
2021/04/11 10:31:51;;;;;;;3.57;1.53;;;;;;;20.48;37.90;95479.09;5018859;28;20835;-86
2021/04/11 10:34:25;;;;;;;1.60;1.20;;;;;;;20.46;37.82;95478.28;5019063;28;20480;-87
2021/04/11 10:36:57;;;;;;;5.13;1.70;;;;;;;20.56;38.23;95487.59;5019513;28;20432;-86
2021/04/11 10:39:36;;;;;;;4.00;1.67;;;;;;;20.71;37.50;95481.31;5019646;28;20444;-85
2021/04/11 10:42:30;;;;;;;1.40;1.20;;;;;;;20.65;37.68;95489.31;5019659;28;20543;-87
2021/04/11 10:45:15;;;;;;;8.43;1.53;;;;;;;20.62;37.60;95476.88;5019482;28;20448;-86
2021/04/11 10:48:18;;;;;;;2.13;1.90;;;;;;;20.67;37.27;95467.47;5020052;28;20436;-85
2021/04/11 10:50:55;;;;;;;1.70;1.50;;;;;;;20.60;37.35;95473.34;5020160;28;20888;-85
2021/04/11 10:53:42;;;;;;;2.77;1.87;;;;;;;20.60;37.32;95470.59;5029356;28;20522;-85
2021/04/11 10:56:22;;;;;;;5.07;1.70;;;;;;;20.52;37.98;95470.28;5041851;28;20424;-85
2021/04/11 10:59:13;;;;;;;5.00;1.90;;;;;;;20.50;38.28;95465.44;5041554;28;20552;-87
2021/04/11 11:01:52;;;;;;;2.60;1.83;;;;;;;20.47;37.88;95466.72;4979989;28;20496;-85
2021/04/11 11:04:44;;;;;;;2.37;1.40;;;;;;;20.45;38.35;95455.69;5022021;28;20432;-85
2021/04/11 11:07:42;;;;;;;3.80;1.87;;;;;;;20.35;38.13;95469.00;5022851;28;20958;-86
2021/04/11 11:10:19;;;;;;;2.67;1.53;;;;;;;20.13;38.36;95468.84;5024203;28;20458;-85
2021/04/11 11:12:57;;;;;;;3.33;1.50;;;;;;;20.07;38.63;95462.41;5022520;28;20452;-86
2021/04/11 11:15:38;;;;;;;2.60;1.70;;;;;;;19.92;38.64;95466.66;5021322;28;20547;-87
2021/04/11 11:18:28;;;;;;;2.47;1.67;;;;;;;19.79;39.06;95475.69;5022854;28;20434;-86
2021/04/11 11:21:07;;;;;;;2.70;1.27;;;;;;;19.61;39.04;95470.19;5022156;28;20447;-89
2021/04/11 11:24:11;;;;;;;4.90;2.00;;;;;;;19.57;39.04;95467.31;5024034;28;20486;-88
2021/04/11 11:26:56;;;;;;;3.70;1.93;;;;;;;19.55;39.52;95466.50;5022969;28;20413;-86
2021/04/11 11:29:54;;;;;;;1.60;1.40;;;;;;;19.32;39.94;95464.16;5023180;28;20424;-88
2021/04/11 11:32:29;;;;;;;2.37;1.83;;;;;;;19.17;40.00;95458.06;5023512;28;20560;-87
2021/04/11 11:35:00;;;;;;;3.43;1.33;;;;;;;19.11;40.23;95462.59;5022054;28;20467;-84
2021/04/11 11:37:54;;;;;;;2.23;1.43;;;;;;;19.20;40.30;95462.31;5022703;28;20511;-87
2021/04/11 11:40:29;;;;;;;4.37;2.13;;;;;;;19.31;40.57;95449.75;5019717;28;20451;-86
2021/04/11 11:43:04;;;;;;;2.83;1.87;;;;;;;19.30;40.00;95459.28;5022260;28;20521;-86
2021/04/11 11:45:38;;;;;;;2.93;2.03;;;;;;;19.38;40.32;95448.69;5022216;28;20459;-85
2021/04/11 11:48:27;;;;;;;2.97;1.90;;;;;;;19.38;40.42;95458.94;5022001;28;20448;-86
2021/04/11 11:51:02;;;;;;;2.23;1.83;;;;;;;19.51;40.14;95458.13;5025984;28;20436;-86
2021/04/11 11:53:34;;;;;;;1.70;1.30;;;;;;;19.60;40.20;95455.09;5022878;28;20507;-87
2021/04/11 11:56:24;;;;;;;3.70;2.00;;;;;;;19.77;39.19;95448.22;5021952;28;20436;-87
2021/04/11 11:58:57;;;;;;;3.43;1.90;;;;;;;19.97;39.39;95445.59;5017576;28;20491;-85
2021/04/11 12:01:32;;;;;;;2.53;1.60;;;;;;;20.32;39.18;95442.16;5020559;28;20508;-85
2021/04/11 12:04:18;;;;;;;2.37;1.67;;;;;;;20.49;38.75;95441.41;5020816;28;20456;-85
2021/04/11 12:06:49;;;;;;;3.43;2.10;;;;;;;20.69;37.72;95439.41;5023802;28;20455;-85
2021/04/11 12:09:22;;;;;;;1.90;1.80;;;;;;;20.60;38.02;95429.47;5022852;28;20451;-88
2021/04/11 12:11:53;;;;;;;6.03;1.77;;;;;;;20.73;37.99;95432.03;5022946;28;20992;-89
2021/04/11 12:14:26;;;;;;;2.80;1.53;;;;;;;20.71;38.08;95431.94;5024130;28;20504;-86
2021/04/11 12:17:03;;;;;;;3.27;1.80;;;;;;;20.83;38.11;95429.63;5022813;28;20527;-86
2021/04/11 12:19:35;;;;;;;2.00;1.53;;;;;;;20.96;37.48;95433.50;5024880;28;20428;-86
2021/04/11 12:22:07;;;;;;;3.10;1.33;;;;;;;20.93;37.50;95421.06;5030974;28;20503;-87